Terminal Aerodrome Forecast
Issued by NWS

Home | Current Version | Previous Version | Text Only | Print | Product List | Glossary Off
Versions: 1 2 3 4 5 6 7 8 9 10 11 12 13 14 15 16 17 18 19 20 21 22 23 24 25 26 27

000
FTUS43 KLOT 150535
TAFDPA
TAF
KDPA 150535Z 1506/1606 16012G17KT 1SM -SN BR OVC012
      TEMPO 1506/1509 3/4SM -SN BR
     FM151100 16010KT 1 1/2SM -SN BR SCT008 OVC010
     FM151600 21007KT 4SM -SN OVC010
     FM151800 27010KT 6SM -SN BKN010 OVC020
     FM160000 27012KT P6SM SCT015 BKN025=

USA.gov is the U.S. government's official web portal to all federal, state and local government web resources and services.